createdAt,value
2023-04-25T00:00:42.242Z,15.39
2023-04-25T00:03:29.474Z,15.37
2023-04-25T00:06:03.712Z,15.35
2023-04-25T00:08:37.490Z,15.32
2023-04-25T00:11:10.760Z,15.33
2023-04-25T00:13:44.217Z,15.34
2023-04-25T00:16:17.779Z,15.34
2023-04-25T00:18:52.886Z,15.34
2023-04-25T00:21:27.261Z,15.33
2023-04-25T00:24:01.543Z,15.33
2023-04-25T00:26:36.298Z,15.32
2023-04-25T00:29:09.883Z,15.31
2023-04-25T00:31:43.861Z,15.30
2023-04-25T00:34:18.020Z,15.28
2023-04-25T00:36:51.340Z,15.29
2023-04-25T00:39:25.987Z,15.29
2023-04-25T00:42:00.364Z,15.29
2023-04-25T00:44:34.670Z,15.30
2023-04-25T00:47:09.370Z,15.31
2023-04-25T00:49:43.037Z,15.30
2023-04-25T00:52:16.873Z,15.28
2023-04-25T00:54:50.358Z,15.27
2023-04-25T00:57:23.917Z,15.23
2023-04-25T00:59:57.796Z,15.18
2023-04-25T01:02:32.197Z,15.17
2023-04-25T01:05:06.465Z,15.13
2023-04-25T01:07:40.392Z,15.09
2023-04-25T01:10:14.229Z,15.09
2023-04-25T01:12:48.216Z,15.07
2023-04-25T01:15:21.950Z,15.03
2023-04-25T01:17:56.771Z,14.99
2023-04-25T01:20:31.553Z,14.96
2023-04-25T01:23:05.455Z,14.91
2023-04-25T01:25:39.786Z,14.88
2023-04-25T01:28:14.172Z,14.86
2023-04-25T01:30:48.915Z,14.85
2023-04-25T01:33:24.711Z,14.84
2023-04-25T01:35:58.349Z,14.84
2023-04-25T01:38:32.361Z,14.82
2023-04-25T01:41:07.842Z,14.81
2023-04-25T01:43:41.218Z,14.81
2023-04-25T01:46:15.634Z,14.79
2023-04-25T01:48:49.905Z,14.77
2023-04-25T01:51:24.123Z,14.76
2023-04-25T01:54:00.876Z,14.77
2023-04-25T01:56:39.615Z,14.77
2023-04-25T01:59:15.016Z,14.76
2023-04-25T02:02:06.439Z,14.76
2023-04-25T02:04:40.853Z,14.76
2023-04-25T02:07:15.039Z,14.78
2023-04-25T02:09:56.609Z,14.80
2023-04-25T02:12:32.306Z,14.81
2023-04-25T02:15:21.489Z,14.82
2023-04-25T02:17:59.243Z,14.81
2023-04-25T02:20:33.456Z,14.78
2023-04-25T02:23:07.138Z,14.76
2023-04-25T02:25:41.053Z,14.73
2023-04-25T02:28:15.559Z,14.68
2023-04-25T02:30:49.069Z,14.65
2023-04-25T02:33:22.502Z,14.63
2023-04-25T02:35:56.438Z,14.58
2023-04-25T02:38:29.984Z,14.51
2023-04-25T02:41:03.651Z,14.46
2023-04-25T02:43:37.533Z,14.42
2023-04-25T02:46:11.682Z,14.39
2023-04-25T02:48:46.983Z,14.38
2023-04-25T02:51:20.507Z,14.39
2023-04-25T02:53:54.761Z,14.40
2023-04-25T02:56:28.890Z,14.42
2023-04-25T02:59:02.791Z,14.40
2023-04-25T03:01:37.223Z,14.41
2023-04-25T03:04:10.900Z,14.41
2023-04-25T03:06:45.815Z,14.41
2023-04-25T03:09:20.364Z,14.42
2023-04-25T03:11:54.472Z,14.41
2023-04-25T03:14:28.096Z,14.43
2023-04-25T03:17:01.812Z,14.45
2023-04-25T03:19:35.494Z,14.46
2023-04-25T03:22:09.685Z,14.48
2023-04-25T03:24:43.430Z,14.47
2023-04-25T03:27:16.855Z,14.47
2023-04-25T03:29:50.718Z,14.49
2023-04-25T03:32:27.312Z,14.53
2023-04-25T03:35:00.924Z,14.58
2023-04-25T03:37:34.828Z,14.61
2023-04-25T03:40:10.462Z,14.65
2023-04-25T03:43:13.417Z,14.69
2023-04-25T03:45:50.725Z,14.70
2023-04-25T03:48:27.335Z,14.70
2023-04-25T03:51:01.334Z,14.70
2023-04-25T03:53:35.236Z,14.71
2023-04-25T03:56:29.734Z,14.71
2023-04-25T03:59:09.192Z,14.71
2023-04-25T04:01:43.473Z,14.70
2023-04-25T04:04:17.509Z,14.67
2023-04-25T04:06:52.120Z,14.67
2023-04-25T04:09:31.314Z,14.69
2023-04-25T04:12:07.750Z,14.71
2023-04-25T04:14:41.830Z,14.69
2023-04-25T04:17:15.197Z,14.67
2023-04-25T04:19:49.110Z,14.64
2023-04-25T04:22:26.549Z,14.63
2023-04-25T04:25:04.449Z,14.63
2023-04-25T04:28:05.086Z,14.66
2023-04-25T04:31:02.892Z,14.70
2023-04-25T04:33:37.984Z,14.70
2023-04-25T04:36:12.800Z,14.71
2023-04-25T04:38:46.275Z,14.72
2023-04-25T04:41:27.994Z,14.72
2023-04-25T04:44:15.388Z,14.66
2023-04-25T04:46:54.037Z,14.60
2023-04-25T04:49:49.001Z,14.55
2023-04-25T04:52:36.892Z,14.48
2023-04-25T04:55:29.941Z,14.45
2023-04-25T04:58:17.469Z,14.42
2023-04-25T05:01:11.753Z,14.41
2023-04-25T05:04:20.854Z,14.35
2023-04-25T05:07:10.231Z,14.34
2023-04-25T05:10:03.321Z,14.38
2023-04-25T05:12:40.648Z,14.42
2023-04-25T05:15:40.453Z,14.45
2023-04-25T05:18:38.742Z,14.49
2023-04-25T05:21:31.352Z,14.47
2023-04-25T05:24:20.943Z,14.40
2023-04-25T05:27:28.261Z,14.33
2023-04-25T05:30:22.124Z,14.26
2023-04-25T05:33:14.252Z,14.27
2023-04-25T05:35:48.082Z,14.24
2023-04-25T05:38:22.092Z,14.26
2023-04-25T05:41:22.605Z,14.36
2023-04-25T05:44:06.969Z,14.41
2023-04-25T05:46:47.477Z,14.51
2023-04-25T05:49:47.782Z,14.67
2023-04-25T05:52:38.192Z,14.79
2023-04-25T05:55:19.076Z,14.82
2023-04-25T05:57:52.878Z,14.80
2023-04-25T06:00:26.822Z,14.80
2023-04-25T06:03:03.835Z,14.78
2023-04-25T06:05:37.943Z,14.80
2023-04-25T06:08:11.989Z,14.81
2023-04-25T06:10:46.632Z,14.82
2023-04-25T06:13:21.352Z,14.77
2023-04-25T06:15:55.147Z,14.69
2023-04-25T06:18:28.722Z,14.64
2023-04-25T06:21:02.429Z,14.62
2023-04-25T06:23:36.216Z,14.57
2023-04-25T06:26:12.978Z,14.47
2023-04-25T06:28:48.271Z,14.36
2023-04-25T06:31:22.680Z,14.23
2023-04-25T06:33:56.960Z,14.05
2023-04-25T06:36:31.762Z,13.90
2023-04-25T06:39:10.571Z,13.82
2023-04-25T06:41:44.549Z,13.83
2023-04-25T06:44:39.435Z,13.82
2023-04-25T06:47:15.356Z,13.85
2023-04-25T06:49:49.754Z,13.92
2023-04-25T06:52:23.513Z,14.01
2023-04-25T06:54:57.909Z,14.13
2023-04-25T06:57:57.990Z,14.22
2023-04-25T07:00:52.126Z,14.24
2023-04-25T07:03:27.923Z,14.22
2023-04-25T07:06:08.670Z,14.42
2023-04-25T07:08:42.416Z,14.67
2023-04-25T07:11:16.442Z,14.88
2023-04-25T07:13:50.444Z,14.96
2023-04-25T07:16:24.516Z,15.01
2023-04-25T07:18:58.498Z,15.01
2023-04-25T07:21:32.614Z,14.98
2023-04-25T07:24:08.366Z,14.96
2023-04-25T07:26:45.018Z,14.95
2023-04-25T07:29:32.267Z,15.03
2023-04-25T07:32:07.192Z,15.15
2023-04-25T07:34:41.262Z,15.28
2023-04-25T07:37:15.437Z,15.42
2023-04-25T07:40:01.376Z,15.54
2023-04-25T07:42:35.049Z,15.57
2023-04-25T07:45:10.615Z,15.62
2023-04-25T07:47:45.121Z,15.57
2023-04-25T07:50:19.668Z,15.50
2023-04-25T07:52:54.717Z,15.46
2023-04-25T07:55:33.114Z,15.40
2023-04-25T07:58:12.239Z,15.26
2023-04-25T08:00:47.400Z,15.10
2023-04-25T08:03:36.108Z,14.96
2023-04-25T08:06:12.697Z,14.82
2023-04-25T08:08:57.106Z,14.73
2023-04-25T08:11:34.659Z,14.67
2023-04-25T08:14:09.427Z,14.63
2023-04-25T08:16:43.695Z,14.60
2023-04-25T08:19:17.390Z,14.58
2023-04-25T08:21:53.570Z,14.67
2023-04-25T08:24:38.804Z,14.86
2023-04-25T08:27:14.363Z,14.99
2023-04-25T08:29:48.159Z,14.99
2023-04-25T08:32:23.902Z,15.00
2023-04-25T08:35:11.096Z,15.06
2023-04-25T08:37:44.575Z,15.09
2023-04-25T08:40:27.443Z,15.11
2023-04-25T08:43:13.149Z,15.18
2023-04-25T08:45:47.641Z,15.15
2023-04-25T08:48:39.932Z,15.03
2023-04-25T08:51:19.848Z,14.95
2023-04-25T08:53:58.010Z,14.89
2023-04-25T08:56:50.925Z,14.83
2023-04-25T08:59:25.357Z,14.77
2023-04-25T09:01:59.696Z,14.66
2023-04-25T09:04:34.458Z,14.61
2023-04-25T09:07:08.102Z,14.53
2023-04-25T09:09:42.039Z,14.49
2023-04-25T09:12:16.136Z,14.51
2023-04-25T09:15:07.314Z,14.56
2023-04-25T09:18:10.591Z,14.56
2023-04-25T09:23:26.921Z,14.45
2023-04-25T09:26:00.578Z,14.44
2023-04-25T09:28:33.929Z,14.43
2023-04-25T09:31:08.105Z,14.40
2023-04-25T09:33:49.454Z,14.36
2023-04-25T09:36:30.869Z,14.35
2023-04-25T09:39:36.409Z,14.41
2023-04-25T09:42:19.036Z,14.46
2023-04-25T09:44:54.381Z,14.44
2023-04-25T09:47:29.892Z,14.41
2023-04-25T09:50:04.113Z,14.41
2023-04-25T09:52:38.066Z,14.43
2023-04-25T09:55:23.892Z,14.40
2023-04-25T09:58:00.623Z,14.39
2023-04-25T10:00:35.445Z,14.39
2023-04-25T10:03:16.627Z,14.38
2023-04-25T10:06:10.407Z,14.35
2023-04-25T10:08:46.366Z,14.31
2023-04-25T10:11:20.989Z,14.30
2023-04-25T10:13:55.449Z,14.30
2023-04-25T10:16:30.124Z,14.31
2023-04-25T10:19:04.260Z,14.32
2023-04-25T10:21:40.165Z,14.31
2023-04-25T10:24:14.117Z,14.29
2023-04-25T10:26:48.877Z,14.28
2023-04-25T10:29:29.055Z,14.32
2023-04-25T10:32:03.149Z,14.42
2023-04-25T10:34:48.418Z,14.48
2023-04-25T10:37:23.446Z,14.50
2023-04-25T10:39:57.123Z,14.47
2023-04-25T10:42:31.293Z,14.40
2023-04-25T10:45:10.581Z,14.34
2023-04-25T10:47:49.564Z,14.30
2023-04-25T10:50:23.358Z,14.31
2023-04-25T10:52:58.172Z,14.33
2023-04-25T10:55:52.196Z,14.37
2023-04-25T10:58:27.721Z,14.46
2023-04-25T11:01:01.974Z,14.54
2023-04-25T11:03:41.238Z,14.60
2023-04-25T11:06:25.336Z,14.68
2023-04-25T11:08:59.676Z,14.78
2023-04-25T11:11:34.145Z,14.88
2023-04-25T11:14:08.309Z,14.99
2023-04-25T11:16:41.996Z,15.17
2023-04-25T11:19:15.429Z,15.29
2023-04-25T11:21:49.276Z,15.35
2023-04-25T11:24:28.245Z,15.40
2023-04-25T11:27:03.601Z,15.45
2023-04-25T11:29:40.560Z,15.48
2023-04-25T11:32:14.865Z,15.50
2023-04-25T11:34:49.553Z,15.49
2023-04-25T11:37:23.171Z,15.48
2023-04-25T11:39:57.194Z,15.49
2023-04-25T11:42:31.328Z,15.49
2023-04-25T11:45:06.792Z,15.47
2023-04-25T11:47:41.072Z,15.45
2023-04-25T11:50:15.649Z,15.44
2023-04-25T11:52:50.324Z,15.45
2023-04-25T11:55:25.227Z,15.42
2023-04-25T11:58:03.568Z,15.40
2023-04-25T12:00:37.408Z,15.35
2023-04-25T12:03:14.013Z,15.27
2023-04-25T12:05:49.137Z,15.18
2023-04-25T12:08:24.208Z,15.12
2023-04-25T12:10:58.519Z,15.08
2023-04-25T12:13:34.267Z,15.02
2023-04-25T12:16:09.244Z,15.00
2023-04-25T12:18:43.736Z,15.00
2023-04-25T12:21:17.427Z,15.00
2023-04-25T12:23:51.406Z,15.03
2023-04-25T12:26:26.872Z,15.06
2023-04-25T12:29:01.676Z,15.11
2023-04-25T12:31:35.538Z,15.11
2023-04-25T12:34:09.287Z,15.09
2023-04-25T12:36:43.219Z,15.02
2023-04-25T12:39:23.032Z,14.96
2023-04-25T12:41:57.049Z,14.89
2023-04-25T12:44:30.626Z,14.87
2023-04-25T12:47:04.520Z,14.85
2023-04-25T12:49:38.894Z,14.85
2023-04-25T12:52:12.964Z,14.85
2023-04-25T12:54:46.621Z,14.84
2023-04-25T12:57:20.224Z,14.84
2023-04-25T12:59:53.933Z,14.84
2023-04-25T13:02:28.208Z,14.89
2023-04-25T13:05:02.306Z,14.95
2023-04-25T13:07:37.182Z,15.00
2023-04-25T13:10:11.976Z,15.04
2023-04-25T13:12:46.867Z,15.07
2023-04-25T13:15:21.030Z,15.13
2023-04-25T13:17:54.376Z,15.22
2023-04-25T13:20:28.377Z,15.31
2023-04-25T13:23:02.956Z,15.40
2023-04-25T13:25:37.022Z,15.44
2023-04-25T13:28:10.783Z,15.46
2023-04-25T13:30:45.663Z,15.51
2023-04-25T13:33:19.950Z,15.53
2023-04-25T13:35:57.717Z,15.56
2023-04-25T13:38:31.940Z,15.57
2023-04-25T13:41:05.844Z,15.58
2023-04-25T13:43:39.685Z,15.64
2023-04-25T13:46:30.132Z,15.69
2023-04-25T13:49:12.249Z,15.70
2023-04-25T13:51:47.206Z,15.67
2023-04-25T13:54:22.135Z,15.64
2023-04-25T13:57:00.701Z,15.64
2023-04-25T13:59:34.633Z,15.65
2023-04-25T14:02:09.128Z,15.66
2023-04-25T14:04:42.819Z,15.68
2023-04-25T14:07:17.837Z,15.72
2023-04-25T14:09:51.841Z,15.73
2023-04-25T14:12:26.227Z,15.74
2023-04-25T14:15:00.002Z,15.76
2023-04-25T14:17:33.938Z,15.73
2023-04-25T14:20:10.585Z,15.68
2023-04-25T14:22:44.999Z,15.67
2023-04-25T14:25:18.904Z,15.68
2023-04-25T14:27:52.751Z,15.67
2023-04-25T14:30:26.776Z,15.63
2023-04-25T14:33:00.870Z,15.59
2023-04-25T14:35:34.556Z,15.51
2023-04-25T14:38:09.144Z,15.47
2023-04-25T14:40:43.081Z,15.45
2023-04-25T14:43:16.842Z,15.42
2023-04-25T14:45:54.407Z,15.36
2023-04-25T14:48:29.051Z,15.32
2023-04-25T14:51:08.514Z,15.36
2023-04-25T14:53:42.595Z,15.41
2023-04-25T14:56:16.533Z,15.44
2023-04-25T14:58:50.349Z,15.43
2023-04-25T15:01:24.500Z,15.39
2023-04-25T15:03:59.576Z,15.35
2023-04-25T15:06:34.396Z,15.34
2023-04-25T15:09:11.985Z,15.33
2023-04-25T15:11:46.444Z,15.34
2023-04-25T15:14:19.598Z,15.35
2023-04-25T15:16:54.309Z,15.32
2023-04-25T15:19:28.544Z,15.25
2023-04-25T15:22:04.436Z,15.16
2023-04-25T15:24:38.525Z,15.05
2023-04-25T15:27:12.564Z,14.91
2023-04-25T15:29:46.858Z,14.78
2023-04-25T15:32:21.422Z,14.71
2023-04-25T15:34:55.216Z,14.67
2023-04-25T15:37:28.962Z,14.63
2023-04-25T15:40:10.532Z,14.58
2023-04-25T15:42:48.208Z,14.56
2023-04-25T15:45:24.491Z,14.53
2023-04-25T15:47:59.189Z,14.46
2023-04-25T15:50:33.176Z,14.37
2023-04-25T15:53:07.507Z,14.26
2023-04-25T15:55:41.698Z,14.21
2023-04-25T15:58:15.626Z,14.16
2023-04-25T16:00:52.339Z,14.09
2023-04-25T16:03:26.374Z,14.02
2023-04-25T16:06:00.114Z,13.96
2023-04-25T16:08:36.135Z,13.94
2023-04-25T16:11:11.088Z,13.90
2023-04-25T16:13:44.718Z,13.85
2023-04-25T16:16:18.974Z,13.79
2023-04-25T16:18:52.410Z,13.73
2023-04-25T16:21:29.553Z,13.64
2023-04-25T16:24:03.364Z,13.54
2023-04-25T16:26:37.909Z,13.45
2023-04-25T16:29:12.974Z,13.39
2023-04-25T16:31:49.427Z,13.34
2023-04-25T16:34:23.941Z,13.28
2023-04-25T16:36:58.072Z,13.21
2023-04-25T16:39:31.639Z,13.16
2023-04-25T16:42:05.598Z,13.14
2023-04-25T16:44:39.942Z,13.10
2023-04-25T16:47:16.899Z,13.07
2023-04-25T16:49:53.979Z,13.02
2023-04-25T16:52:28.010Z,12.98
2023-04-25T16:55:01.817Z,12.93
2023-04-25T16:57:36.629Z,12.89
2023-04-25T17:00:14.087Z,12.83
2023-04-25T17:02:49.739Z,12.77
2023-04-25T17:05:24.454Z,12.73
2023-04-25T17:07:58.490Z,12.67
2023-04-25T17:10:33.372Z,12.64
2023-04-25T17:13:08.339Z,12.61
2023-04-25T17:15:42.208Z,12.58
2023-04-25T17:18:16.788Z,12.58
2023-04-25T17:20:50.526Z,12.54
2023-04-25T17:23:26.666Z,12.51
2023-04-25T17:26:01.265Z,12.49
2023-04-25T17:28:37.286Z,12.49
2023-04-25T17:31:13.251Z,12.46
2023-04-25T17:33:47.421Z,12.45
2023-04-25T17:36:23.665Z,12.46
2023-04-25T17:38:58.413Z,12.45
2023-04-25T17:41:34.669Z,12.42
2023-04-25T17:44:09.999Z,12.40
2023-04-25T17:46:46.209Z,12.38
2023-04-25T17:49:19.912Z,12.39
2023-04-25T17:51:55.077Z,12.38
2023-04-25T17:54:30.145Z,12.39
2023-04-25T17:57:06.865Z,12.37
2023-04-25T17:59:40.858Z,12.35
2023-04-25T18:02:18.077Z,12.34
2023-04-25T18:04:54.526Z,12.32
2023-04-25T18:07:29.991Z,12.29
2023-04-25T18:10:09.684Z,12.28
2023-04-25T18:12:44.406Z,12.31
2023-04-25T18:15:22.635Z,12.32
2023-04-25T18:18:03.862Z,12.31
2023-04-25T18:20:40.608Z,12.30
2023-04-25T18:23:22.970Z,12.28
2023-04-25T18:26:08.358Z,12.26
2023-04-25T18:28:46.344Z,12.22
2023-04-25T18:31:26.715Z,12.19
2023-04-25T18:34:01.363Z,12.21
2023-04-25T18:36:39.937Z,12.22
2023-04-25T18:39:22.457Z,12.22
2023-04-25T18:42:09.635Z,12.21
2023-04-25T18:44:47.803Z,12.21
2023-04-25T18:47:23.638Z,12.18
2023-04-25T18:49:57.789Z,12.16
2023-04-25T18:52:34.390Z,12.14
2023-04-25T18:55:11.430Z,12.15
2023-04-25T18:57:46.799Z,12.16
2023-04-25T19:00:25.874Z,12.15
2023-04-25T19:03:05.508Z,12.16
2023-04-25T19:05:43.736Z,12.15
2023-04-25T19:08:17.586Z,12.13
2023-04-25T19:10:54.797Z,12.11
2023-04-25T19:13:31.070Z,12.12
2023-04-25T19:16:06.729Z,12.14
2023-04-25T19:18:42.269Z,12.12
2023-04-25T19:21:22.312Z,12.11
2023-04-25T19:23:58.178Z,12.11
2023-04-25T19:26:37.836Z,12.10
2023-04-25T19:29:15.446Z,12.09
2023-04-25T19:31:58.160Z,12.08
2023-04-25T19:34:33.746Z,12.10
2023-04-25T19:37:08.864Z,12.10
2023-04-25T19:39:48.234Z,12.11
2023-04-25T19:42:24.944Z,12.12
2023-04-25T19:45:03.610Z,12.10
2023-04-25T19:47:44.220Z,12.11
2023-04-25T19:50:19.730Z,12.10
2023-04-25T19:52:54.528Z,12.09
2023-04-25T19:55:30.160Z,12.07
2023-04-25T19:58:11.353Z,12.08
2023-04-25T20:00:48.146Z,12.10
2023-04-25T20:03:23.964Z,12.09
2023-04-25T20:06:02.397Z,12.06
2023-04-25T20:08:40.776Z,12.06
2023-04-25T20:11:15.256Z,12.07
2023-04-25T20:13:50.627Z,12.07
2023-04-25T20:16:26.318Z,12.07
2023-04-25T20:19:02.481Z,12.07
2023-04-25T20:21:38.147Z,12.11
2023-04-25T20:24:12.877Z,12.14
2023-04-25T20:26:48.990Z,12.13
2023-04-25T20:29:22.881Z,12.09
2023-04-25T20:31:58.140Z,12.07
2023-04-25T20:34:32.106Z,12.06
2023-04-25T20:37:08.867Z,12.07
2023-04-25T20:39:42.405Z,12.06
2023-04-25T20:42:16.162Z,12.05
2023-04-25T20:44:50.853Z,12.03
2023-04-25T20:47:24.295Z,12.02
2023-04-25T20:49:59.614Z,11.99
2023-04-25T20:52:33.553Z,11.96
2023-04-25T20:55:08.485Z,11.92
2023-04-25T20:57:42.750Z,11.92
2023-04-25T21:00:18.923Z,11.93
2023-04-25T21:02:53.038Z,11.93
2023-04-25T21:05:26.593Z,11.92
2023-04-25T21:08:00.259Z,11.89
2023-04-25T21:10:36.118Z,11.85
2023-04-25T21:13:12.495Z,11.86
2023-04-25T21:15:46.000Z,11.89
2023-04-25T21:18:22.901Z,11.92
2023-04-25T21:20:56.744Z,11.92
2023-04-25T21:23:31.286Z,11.90
2023-04-25T21:26:04.756Z,11.88
2023-04-25T21:28:38.387Z,11.86
2023-04-25T21:31:12.487Z,11.85
2023-04-25T21:33:45.964Z,11.83
2023-04-25T21:36:19.668Z,11.82
2023-04-25T21:38:53.634Z,11.82
2023-04-25T21:41:28.219Z,11.81
2023-04-25T21:44:02.178Z,11.81
2023-04-25T21:46:35.943Z,11.80
2023-04-25T21:49:09.608Z,11.80
2023-04-25T21:51:43.853Z,11.78
2023-04-25T21:54:17.885Z,11.77
2023-04-25T21:56:51.761Z,11.77
2023-04-25T21:59:26.455Z,11.78
2023-04-25T22:02:00.499Z,11.79
2023-04-25T22:04:34.816Z,11.79
2023-04-25T22:07:09.449Z,11.73
2023-04-25T22:09:54.292Z,11.69
2023-04-25T22:12:29.292Z,11.67
2023-04-25T22:15:03.760Z,11.66
2023-04-25T22:18:10.698Z,11.60
2023-04-25T22:20:47.719Z,11.53
2023-04-25T22:23:21.527Z,11.50
2023-04-25T22:25:55.038Z,11.43
2023-04-25T22:28:28.978Z,11.38
2023-04-25T22:31:37.360Z,11.34
2023-04-25T22:34:30.310Z,11.28
2023-04-25T22:37:04.010Z,11.24
2023-04-25T22:39:38.057Z,11.19
2023-04-25T22:42:11.883Z,11.18
2023-04-25T22:44:45.400Z,11.20
2023-04-25T22:47:19.191Z,11.17
2023-04-25T22:49:53.891Z,11.13
2023-04-25T22:52:27.928Z,11.09
2023-04-25T22:55:02.037Z,11.08
2023-04-25T22:57:38.529Z,11.09
2023-04-25T23:00:20.338Z,11.05
2023-04-25T23:02:54.051Z,11.04
2023-04-25T23:05:27.732Z,11.05
2023-04-25T23:08:01.228Z,11.06
2023-04-25T23:10:34.702Z,11.06
2023-04-25T23:13:08.960Z,11.11
2023-04-25T23:15:43.079Z,11.15
2023-04-25T23:18:16.946Z,11.18
2023-04-25T23:20:50.481Z,11.17
2023-04-25T23:23:24.365Z,11.12
2023-04-25T23:25:58.610Z,11.07
2023-04-25T23:28:32.151Z,11.07
2023-04-25T23:31:09.367Z,11.08
2023-04-25T23:33:43.293Z,11.08
2023-04-25T23:36:22.344Z,11.08
2023-04-25T23:38:57.461Z,11.06
2023-04-25T23:41:31.025Z,11.03
2023-04-25T23:44:08.201Z,10.97
2023-04-25T23:46:41.852Z,10.91
2023-04-25T23:49:15.353Z,10.89
2023-04-25T23:51:49.210Z,10.86
2023-04-25T23:54:23.869Z,10.84
2023-04-25T23:56:57.268Z,10.82
2023-04-25T23:59:30.744Z,10.78
